Sally Maersk — OZHS2 — position and weather

sailwx.info

Track history (hours):
 
Tides and Currents Weather Stations Pressure Air Temp Water Temp Dewpoint Dewpoint Depression Visibility Wind Speed Wind Dir Waves Ship Positions

Sally Maersk

Last reported at 2017-Oct-24 16:41 UTC. Time now 2017-Nov-21 00:55 UTC.
Position N 34°51' E 139°47'.
Warning: this ship's position is 27 days out of date.

Type: Ship (hazmat cat A). MMSI: 219324000.

Date/timePositionNaut miles runAvg speedWind from/ knotsBaromVisibWave heightAir tempDewpointWater temp
2017-Oct-24 16:41N 34°51' E 139°47'419.9
2017-Oct-24 16:28N 34°55' E 139°43'919.8
2017-Oct-24 16:00N 35°04' E 139°44'815.7
2017-Oct-24 15:30N 35°12' E 139°46'611.3
2017-Oct-24 15:00N 35°17' E 139°45'612.1
2017-Oct-24 14:30N 35°22' E 139°41'2 3.0
2017-Oct-24 14:00N 35°24' E 139°40'0 0.6
2017-Oct-24 13:29N 35°24' E 139°41'0 0.0
2017-Oct-24 12:59N 35°24' E 139°41'0 0.0
2017-Oct-24 12:29N 35°24' E 139°41'0 0.0
2017-Oct-24 11:59N 35°24' E 139°41'0 0.0
2017-Oct-24 11:29N 35°24' E 139°41'0 0.0
2017-Oct-24 10:59N 35°24' E 139°41'0 0.0
2017-Oct-24 10:29N 35°24' E 139°41'0 0.0
2017-Oct-24 09:59N 35°24' E 139°41'0 0.0
2017-Oct-24 09:29N 35°24' E 139°41'0 0.0
2017-Oct-24 08:59N 35°24' E 139°41'0 0.0
2017-Oct-24 08:29N 35°24' E 139°41'0 0.0
2017-Oct-24 07:59N 35°24' E 139°41'0 0.0
2017-Oct-24 07:29N 35°24' E 139°41'0 0.0
2017-Oct-24 06:59N 35°24' E 139°41'0 0.0
2017-Oct-24 06:29N 35°24' E 139°41'0 0.0
2017-Oct-24 05:59N 35°24' E 139°41'0 0.0
2017-Oct-24 05:29N 35°24' E 139°41'0 0.0
2017-Oct-24 05:00N 35°24' E 139°41'1 1.4
2017-Oct-24 04:30N 35°23' E 139°41'4 7.2
2017-Oct-24 04:00N 35°20' E 139°43'612.6
2017-Oct-24 03:30N 35°15' E 139°47'611.7
2017-Oct-24 03:00N 35°09' E 139°46'612.9
2017-Oct-24 02:30N 35°03' E 139°43'714.4
2017-Oct-24 02:00N 34°57' E 139°39'815.4
2017-Oct-24 01:30N 34°50' E 139°37'  
2017-Oct-17 22:06N 23°53' E 118°34'620.8
2017-Oct-17 21:49N 23°49' E 118°29'22320.6
2017-Oct-17 10:58N 22°02' E 114°57'1021.1
2017-Oct-17 10:30N 21°59' E 114°47'1120.9
2017-Oct-17 10:00N 21°56' E 114°36'5511.4
2017-Oct-17 05:08N 22°26' E 113°45'315.0
2017-Oct-17 04:56N 22°29' E 113°45'614.4
2017-Oct-17 04:30N 22°35' E 113°43'4 0.6
2017-Oct-16 21:48N 22°38' E 113°41'0 0.0
2017-Oct-16 21:29N 22°38' E 113°41'0 0.2
2017-Oct-16 20:59N 22°38' E 113°41'3 5.9
2017-Oct-16 20:29N 22°36' E 113°43'510.4
2017-Oct-16 20:00N 22°31' E 113°44'  
Track history (hours):
 
Tides and Currents Weather Stations Pressure Air Temp Water Temp Dewpoint Dewpoint Depression Visibility Wind Speed Wind Dir Waves Ship Positions

Sally Maersk

Last reported at 2017-Oct-24 16:41 UTC. Time now 2017-Nov-21 00:55 UTC.
Position N 34°51' E 139°47'.
Warning: this ship's position is 27 days out of date.

Type: Ship (hazmat cat A). MMSI: 219324000.

Date/timePositionNaut miles runAvg speedWind from/ knotsBaromVisibWave heightAir tempDewpointWater temp
2017-Oct-24 16:41N 34°51' E 139°47'419.9
2017-Oct-24 16:28N 34°55' E 139°43'919.8
2017-Oct-24 16:00N 35°04' E 139°44'815.7
2017-Oct-24 15:30N 35°12' E 139°46'611.3
2017-Oct-24 15:00N 35°17' E 139°45'612.1
2017-Oct-24 14:30N 35°22' E 139°41'2 3.0
2017-Oct-24 14:00N 35°24' E 139°40'0 0.6
2017-Oct-24 13:29N 35°24' E 139°41'0 0.0
2017-Oct-24 12:59N 35°24' E 139°41'0 0.0
2017-Oct-24 12:29N 35°24' E 139°41'0 0.0
2017-Oct-24 11:59N 35°24' E 139°41'0 0.0
2017-Oct-24 11:29N 35°24' E 139°41'0 0.0
2017-Oct-24 10:59N 35°24' E 139°41'0 0.0
2017-Oct-24 10:29N 35°24' E 139°41'0 0.0
2017-Oct-24 09:59N 35°24' E 139°41'0 0.0
2017-Oct-24 09:29N 35°24' E 139°41'0 0.0
2017-Oct-24 08:59N 35°24' E 139°41'0 0.0
2017-Oct-24 08:29N 35°24' E 139°41'0 0.0
2017-Oct-24 07:59N 35°24' E 139°41'0 0.0
2017-Oct-24 07:29N 35°24' E 139°41'0 0.0
2017-Oct-24 06:59N 35°24' E 139°41'0 0.0
2017-Oct-24 06:29N 35°24' E 139°41'0 0.0
2017-Oct-24 05:59N 35°24' E 139°41'0 0.0
2017-Oct-24 05:29N 35°24' E 139°41'0 0.0
2017-Oct-24 05:00N 35°24' E 139°41'1 1.4
2017-Oct-24 04:30N 35°23' E 139°41'4 7.2
2017-Oct-24 04:00N 35°20' E 139°43'612.6
2017-Oct-24 03:30N 35°15' E 139°47'611.7
2017-Oct-24 03:00N 35°09' E 139°46'612.9
2017-Oct-24 02:30N 35°03' E 139°43'714.4
2017-Oct-24 02:00N 34°57' E 139°39'815.4
2017-Oct-24 01:30N 34°50' E 139°37'  
2017-Oct-17 22:06N 23°53' E 118°34'620.8
2017-Oct-17 21:49N 23°49' E 118°29'22320.6
2017-Oct-17 10:58N 22°02' E 114°57'1021.1
2017-Oct-17 10:30N 21°59' E 114°47'1120.9
2017-Oct-17 10:00N 21°56' E 114°36'5511.4
2017-Oct-17 05:08N 22°26' E 113°45'315.0
2017-Oct-17 04:56N 22°29' E 113°45'614.4
2017-Oct-17 04:30N 22°35' E 113°43'4 0.6
2017-Oct-16 21:48N 22°38' E 113°41'0 0.0
2017-Oct-16 21:29N 22°38' E 113°41'0 0.2
2017-Oct-16 20:59N 22°38' E 113°41'3 5.9
2017-Oct-16 20:29N 22°36' E 113°43'510.4
2017-Oct-16 20:00N 22°31' E 113°44'  

Dump ship's entire track history